createdAt,value
2018-12-03T00:00:16.107Z,11.00
2018-12-03T00:02:44.455Z,11.00
2018-12-03T00:05:12.637Z,11.00
2018-12-03T00:07:40.861Z,11.10
2018-12-03T00:10:09.470Z,11.00
2018-12-03T00:12:37.777Z,11.10
2018-12-03T00:15:06.941Z,11.10
2018-12-03T00:17:35.369Z,11.10
2018-12-03T00:20:03.614Z,11.10
2018-12-03T00:22:31.776Z,11.10
2018-12-03T00:24:59.996Z,11.10
2018-12-03T00:27:28.212Z,11.20
2018-12-03T00:29:56.645Z,11.20
2018-12-03T00:32:24.889Z,11.20
2018-12-03T00:34:53.149Z,11.20
2018-12-03T00:37:21.498Z,11.20
2018-12-03T00:39:49.821Z,11.20
2018-12-03T00:42:18.001Z,11.20
2018-12-03T00:44:46.229Z,11.20
2018-12-03T00:47:14.448Z,11.20
2018-12-03T00:49:42.653Z,11.20
2018-12-03T00:52:10.876Z,11.20
2018-12-03T00:54:39.072Z,11.30
2018-12-03T00:57:07.605Z,11.30
2018-12-03T00:59:35.855Z,11.30
2018-12-03T01:02:04.036Z,11.30
2018-12-03T01:04:32.256Z,11.30
2018-12-03T01:07:00.433Z,11.30
2018-12-03T01:09:28.662Z,11.30
2018-12-03T01:11:56.896Z,11.30
2018-12-03T01:14:25.149Z,11.30
2018-12-03T01:16:53.797Z,11.30
2018-12-03T01:19:21.987Z,11.30
2018-12-03T01:21:50.201Z,11.30
2018-12-03T01:24:18.418Z,11.40
2018-12-03T01:26:46.642Z,11.40
2018-12-03T01:29:14.940Z,11.40
2018-12-03T01:31:43.145Z,11.40
2018-12-03T01:34:11.359Z,11.50
2018-12-03T01:36:39.592Z,11.50
2018-12-03T01:39:08.772Z,11.50
2018-12-03T01:41:37.117Z,11.40
2018-12-03T01:44:05.654Z,11.40
2018-12-03T01:46:33.904Z,11.30
2018-12-03T01:49:02.134Z,11.30
2018-12-03T01:51:30.349Z,11.30
2018-12-03T01:53:58.657Z,11.20
2018-12-03T01:56:26.899Z,11.20
2018-12-03T01:58:55.113Z,11.20
2018-12-03T02:01:23.329Z,11.20
2018-12-03T02:03:51.595Z,11.20
2018-12-03T02:06:19.833Z,11.20
2018-12-03T02:08:48.025Z,11.10
2018-12-03T02:11:16.237Z,11.10
2018-12-03T02:13:44.442Z,11.10
2018-12-03T02:16:12.651Z,11.10
2018-12-03T02:18:40.873Z,11.20
2018-12-03T02:21:09.070Z,11.20
2018-12-03T02:23:37.305Z,11.20
2018-12-03T02:26:05.497Z,11.10
2018-12-03T02:28:33.704Z,11.10
2018-12-03T02:31:01.895Z,11.10
2018-12-03T02:33:30.097Z,11.10
2018-12-03T02:35:58.348Z,11.10
2018-12-03T02:38:26.851Z,11.10
2018-12-03T02:40:55.029Z,11.10
2018-12-03T02:43:23.252Z,11.10
2018-12-03T02:45:51.449Z,11.00
2018-12-03T02:48:19.653Z,11.00
2018-12-03T02:50:47.818Z,11.00
2018-12-03T02:53:16.021Z,11.00
2018-12-03T02:55:44.225Z,11.00
2018-12-03T02:58:12.415Z,10.90
2018-12-03T03:00:40.729Z,10.90
2018-12-03T03:03:09.674Z,10.90
2018-12-03T03:05:37.918Z,11.00
2018-12-03T03:08:06.385Z,10.90
2018-12-03T03:10:34.700Z,10.90
2018-12-03T03:13:02.929Z,10.90
2018-12-03T03:15:31.174Z,10.90
2018-12-03T03:17:59.373Z,10.90
2018-12-03T03:20:27.562Z,10.90
2018-12-03T03:22:55.777Z,10.90
2018-12-03T03:25:23.957Z,10.90
2018-12-03T03:27:52.773Z,10.80
2018-12-03T03:30:20.975Z,10.80
2018-12-03T03:32:49.231Z,10.90
2018-12-03T03:35:17.393Z,10.90
2018-12-03T03:37:45.743Z,10.90
2018-12-03T03:40:14.909Z,10.90
2018-12-03T03:42:44.620Z,11.00
2018-12-03T03:45:14.477Z,11.00
2018-12-03T03:47:42.692Z,11.00
2018-12-03T03:50:10.915Z,11.00
2018-12-03T03:52:39.100Z,11.00
2018-12-03T03:55:08.222Z,11.00
2018-12-03T03:57:36.450Z,11.00
2018-12-03T04:00:07.399Z,11.10
2018-12-03T04:02:35.569Z,11.00
2018-12-03T04:05:03.791Z,11.00
2018-12-03T04:07:31.989Z,11.00
2018-12-03T04:10:00.249Z,11.10
2018-12-03T04:12:28.464Z,11.10
2018-12-03T04:14:56.672Z,11.10
2018-12-03T04:17:24.890Z,11.10
2018-12-03T04:19:53.109Z,11.10
2018-12-03T04:22:21.319Z,11.10
2018-12-03T04:24:49.612Z,11.10
2018-12-03T04:27:17.809Z,11.10
2018-12-03T04:29:46.009Z,11.10
2018-12-03T04:32:14.214Z,11.10
2018-12-03T04:34:42.493Z,11.10
2018-12-03T04:37:10.994Z,11.10
2018-12-03T04:39:39.170Z,11.10
2018-12-03T04:42:07.394Z,11.10
2018-12-03T04:44:35.653Z,11.10
2018-12-03T04:47:03.918Z,11.10
2018-12-03T04:49:32.093Z,11.10
2018-12-03T04:52:00.766Z,11.10
2018-12-03T04:54:29.321Z,11.10
2018-12-03T04:56:57.547Z,11.10
2018-12-03T04:59:25.749Z,11.10
2018-12-03T05:01:53.944Z,11.20
2018-12-03T05:04:22.168Z,11.20
2018-12-03T05:06:51.608Z,11.20
2018-12-03T05:09:18.611Z,11.20
2018-12-03T05:11:46.809Z,11.20
2018-12-03T05:14:14.996Z,11.20
2018-12-03T05:16:43.171Z,11.30
2018-12-03T05:19:11.417Z,11.30
2018-12-03T05:21:39.621Z,11.30
2018-12-03T05:24:07.881Z,11.30
2018-12-03T05:26:36.151Z,11.30
2018-12-03T05:29:04.469Z,11.40
2018-12-03T05:31:32.716Z,11.40
2018-12-03T05:34:01.026Z,11.40
2018-12-03T05:36:29.216Z,11.40
2018-12-03T05:38:57.408Z,11.40
2018-12-03T05:41:25.685Z,11.40
2018-12-03T05:43:53.880Z,11.40
2018-12-03T05:46:22.133Z,11.40
2018-12-03T05:48:50.432Z,11.40
2018-12-03T05:51:18.747Z,11.40
2018-12-03T05:53:47.019Z,11.40
2018-12-03T05:56:15.252Z,11.50
2018-12-03T05:58:43.615Z,11.50
2018-12-03T06:01:11.892Z,11.50
2018-12-03T06:03:40.279Z,11.50
2018-12-03T06:06:08.584Z,11.50
2018-12-03T06:08:37.046Z,11.50
2018-12-03T06:11:05.350Z,11.50
2018-12-03T06:13:33.585Z,11.50
2018-12-03T06:16:01.825Z,11.40
2018-12-03T06:18:30.093Z,11.50
2018-12-03T06:20:58.281Z,11.50
2018-12-03T06:23:26.551Z,11.50
2018-12-03T06:25:54.804Z,11.50
2018-12-03T06:28:22.998Z,11.50
2018-12-03T06:30:51.239Z,11.50
2018-12-03T06:33:19.480Z,11.50
2018-12-03T06:35:47.696Z,11.50
2018-12-03T06:38:15.911Z,11.50
2018-12-03T06:40:44.174Z,11.60
2018-12-03T06:43:12.452Z,11.50
2018-12-03T06:45:40.743Z,11.50
2018-12-03T06:48:12.181Z,11.40
2018-12-03T06:50:40.447Z,11.40
2018-12-03T06:53:08.675Z,11.40
2018-12-03T06:55:37.018Z,11.40
2018-12-03T06:58:05.540Z,11.50
2018-12-03T07:00:33.807Z,11.60
2018-12-03T07:03:02.098Z,11.70
2018-12-03T07:05:30.697Z,11.70
2018-12-03T07:08:00.026Z,11.70
2018-12-03T07:10:28.341Z,11.80
2018-12-03T07:12:59.420Z,11.80
2018-12-03T07:15:28.692Z,11.80
2018-12-03T07:17:57.733Z,11.90
2018-12-03T07:20:26.027Z,11.80
2018-12-03T07:22:54.423Z,11.80
2018-12-03T07:25:22.717Z,11.90
2018-12-03T07:27:51.164Z,11.90
2018-12-03T07:30:21.441Z,11.80
2018-12-03T07:32:50.316Z,11.80
2018-12-03T07:35:19.393Z,11.80
2018-12-03T07:37:48.350Z,11.80
2018-12-03T07:40:16.720Z,11.90
2018-12-03T07:42:45.037Z,11.90
2018-12-03T07:45:15.620Z,12.00
2018-12-03T07:47:44.240Z,12.00
2018-12-03T07:50:17.349Z,12.00
2018-12-03T07:52:45.634Z,12.10
2018-12-03T07:55:19.286Z,12.00
2018-12-03T07:57:54.397Z,12.10
2018-12-03T08:00:28.176Z,12.10
2018-12-03T08:02:56.501Z,12.10
2018-12-03T08:05:24.733Z,12.00
2018-12-03T08:07:52.987Z,12.00
2018-12-03T08:10:21.228Z,12.10
2018-12-03T08:12:50.393Z,12.20
2018-12-03T08:15:19.525Z,12.20
2018-12-03T08:17:49.793Z,12.30
2018-12-03T08:20:35.695Z,12.30
2018-12-03T08:23:07.176Z,12.40
2018-12-03T08:25:35.502Z,12.30
2018-12-03T08:28:03.829Z,12.40
2018-12-03T08:30:32.122Z,12.40
2018-12-03T08:33:00.365Z,12.40
2018-12-03T08:35:28.658Z,12.40
2018-12-03T08:37:56.892Z,12.40
2018-12-03T08:40:25.150Z,12.50
2018-12-03T08:42:54.632Z,12.50
2018-12-03T08:45:25.842Z,12.60
2018-12-03T08:47:54.402Z,12.60
2018-12-03T08:50:23.895Z,12.70
2018-12-03T08:52:52.249Z,12.70
2018-12-03T08:55:20.476Z,12.80
2018-12-03T08:57:48.748Z,12.80
2018-12-03T09:00:26.081Z,12.80
2018-12-03T09:02:58.998Z,12.90
2018-12-03T09:05:29.184Z,12.90
2018-12-03T09:07:57.398Z,12.90
2018-12-03T09:10:25.617Z,13.00
2018-12-03T09:12:53.842Z,12.90
2018-12-03T09:15:22.069Z,12.90
2018-12-03T09:17:50.304Z,12.90
2018-12-03T09:20:18.577Z,12.90
2018-12-03T09:22:46.821Z,12.80
2018-12-03T09:25:26.104Z,12.80
2018-12-03T09:27:54.327Z,12.80
2018-12-03T09:30:27.555Z,12.90
2018-12-03T09:32:51.032Z,12.90
2018-12-03T09:35:19.217Z,13.00
2018-12-03T09:37:47.455Z,12.90
2018-12-03T09:40:18.114Z,12.90
2018-12-03T09:42:46.355Z,12.90
2018-12-03T09:45:17.586Z,12.90
2018-12-03T09:47:46.249Z,12.90
2018-12-03T09:50:21.573Z,13.00
2018-12-03T09:52:50.093Z,13.00
2018-12-03T09:55:25.528Z,13.00
2018-12-03T09:58:05.869Z,13.00
2018-12-03T10:00:34.189Z,13.10
2018-12-03T10:03:08.363Z,13.10
2018-12-03T10:05:42.457Z,13.10
2018-12-03T10:08:11.468Z,13.20
2018-12-03T10:10:39.751Z,13.20
2018-12-03T10:13:09.195Z,13.20
2018-12-03T10:15:37.413Z,13.20
2018-12-03T10:18:05.725Z,13.30
2018-12-03T10:20:34.003Z,13.30
2018-12-03T10:23:02.235Z,13.30
2018-12-03T10:25:30.503Z,13.30
2018-12-03T10:28:02.168Z,13.30
2018-12-03T10:30:30.477Z,13.40
2018-12-03T10:32:58.709Z,13.50
2018-12-03T10:35:36.739Z,13.40
2018-12-03T10:38:10.035Z,13.40
2018-12-03T10:40:42.321Z,13.50
2018-12-03T10:43:11.704Z,13.60
2018-12-03T10:45:39.944Z,13.60
2018-12-03T10:48:08.246Z,13.60
2018-12-03T10:50:36.518Z,13.60
2018-12-03T10:53:04.997Z,13.60
2018-12-03T10:55:33.319Z,13.60
2018-12-03T10:58:01.650Z,13.60
2018-12-03T11:00:35.390Z,13.60
2018-12-03T11:05:12.189Z,13.70
2018-12-03T11:07:40.546Z,13.70
2018-12-03T11:10:08.887Z,13.70
2018-12-03T11:12:37.242Z,13.80
2018-12-03T11:15:14.632Z,13.80
2018-12-03T11:17:42.998Z,14.00
2018-12-03T11:20:11.330Z,14.00
2018-12-03T11:22:39.616Z,14.10
2018-12-03T11:25:12.454Z,14.10
2018-12-03T11:27:41.303Z,14.10
2018-12-03T11:30:11.377Z,14.10
2018-12-03T11:32:39.653Z,14.10
2018-12-03T11:35:09.544Z,14.20
2018-12-03T11:37:39.518Z,14.10
2018-12-03T11:40:25.284Z,14.10
2018-12-03T11:42:54.660Z,14.20
2018-12-03T11:45:23.093Z,14.20
2018-12-03T11:47:51.386Z,14.20
2018-12-03T11:50:19.723Z,14.20
2018-12-03T11:52:47.981Z,14.20
2018-12-03T11:55:16.269Z,14.30
2018-12-03T11:57:44.546Z,14.30
2018-12-03T12:00:13.721Z,14.30
2018-12-03T12:02:42.016Z,14.40
2018-12-03T12:05:10.326Z,14.40
2018-12-03T12:07:42.318Z,14.40
2018-12-03T12:10:08.793Z,14.40
2018-12-03T12:12:37.157Z,14.40
2018-12-03T12:15:10.273Z,14.40
2018-12-03T12:17:38.553Z,14.30
2018-12-03T12:20:08.525Z,14.30
2018-12-03T12:22:36.939Z,14.30
2018-12-03T12:25:09.512Z,14.40
2018-12-03T12:27:38.225Z,14.40
2018-12-03T12:30:10.995Z,14.40
2018-12-03T12:32:39.312Z,14.40
2018-12-03T12:35:08.262Z,14.30
2018-12-03T12:37:36.520Z,14.30
2018-12-03T12:40:07.357Z,14.30
2018-12-03T12:42:35.671Z,14.30
2018-12-03T12:45:05.055Z,14.30
2018-12-03T12:47:33.413Z,14.30
2018-12-03T12:50:01.711Z,14.20
2018-12-03T12:52:29.986Z,14.20
2018-12-03T12:54:58.217Z,14.20
2018-12-03T12:57:26.506Z,14.10
2018-12-03T12:59:54.750Z,14.10
2018-12-03T13:02:23.027Z,14.10
2018-12-03T13:04:51.676Z,14.10
2018-12-03T13:07:19.953Z,14.10
2018-12-03T13:09:48.269Z,14.10
2018-12-03T13:12:16.500Z,14.10
2018-12-03T13:14:44.791Z,14.00
2018-12-03T13:17:13.240Z,14.00
2018-12-03T13:19:41.499Z,14.10
2018-12-03T13:22:09.701Z,14.10
2018-12-03T13:24:37.968Z,14.00
2018-12-03T13:27:07.293Z,14.10
2018-12-03T13:29:35.513Z,14.00
2018-12-03T13:32:03.821Z,14.00
2018-12-03T13:34:34.476Z,13.90
2018-12-03T13:37:00.332Z,14.00
2018-12-03T13:39:28.553Z,14.00
2018-12-03T13:41:56.842Z,14.00
2018-12-03T13:44:25.112Z,14.00
2018-12-03T13:46:53.363Z,14.00
2018-12-03T13:49:21.636Z,14.00
2018-12-03T13:51:49.879Z,14.00
2018-12-03T13:54:18.285Z,14.00
2018-12-03T13:56:46.480Z,13.90
2018-12-03T13:59:14.664Z,13.90
2018-12-03T14:01:42.902Z,14.00
2018-12-03T14:04:15.721Z,13.90
2018-12-03T14:06:52.911Z,13.90
2018-12-03T14:09:28.449Z,13.90
2018-12-03T14:13:07.504Z,13.80
2018-12-03T14:17:48.077Z,13.80
2018-12-03T14:20:16.546Z,13.80
2018-12-03T14:22:54.446Z,13.70
2018-12-03T14:25:22.689Z,13.60
2018-12-03T14:27:51.291Z,13.60
2018-12-03T14:30:19.542Z,13.60
2018-12-03T14:32:47.752Z,13.60
2018-12-03T14:35:15.977Z,13.60
2018-12-03T14:37:44.594Z,13.60
2018-12-03T14:40:13.183Z,13.70
2018-12-03T14:42:41.472Z,13.70
2018-12-03T14:45:11.356Z,13.70
2018-12-03T14:47:39.644Z,13.70
2018-12-03T14:50:10.298Z,13.70
2018-12-03T14:52:38.581Z,13.70
2018-12-03T14:55:07.461Z,13.70
2018-12-03T14:57:35.742Z,13.60
2018-12-03T15:00:04.597Z,13.60
2018-12-03T15:02:32.891Z,13.50
2018-12-03T15:05:01.165Z,13.50
2018-12-03T15:07:29.428Z,13.50
2018-12-03T15:09:57.751Z,13.60
2018-12-03T15:12:26.477Z,13.50
2018-12-03T15:14:54.819Z,13.50
2018-12-03T15:17:23.070Z,13.50
2018-12-03T15:19:51.253Z,13.50
2018-12-03T15:22:19.489Z,13.40
2018-12-03T15:24:47.756Z,13.40
2018-12-03T15:27:16.049Z,13.40
2018-12-03T15:29:44.367Z,13.40
2018-12-03T15:32:12.593Z,13.30
2018-12-03T15:34:40.784Z,13.40
2018-12-03T15:37:08.981Z,13.30
2018-12-03T15:39:37.249Z,13.40
2018-12-03T15:42:05.531Z,13.40
2018-12-03T15:44:33.778Z,13.40
2018-12-03T15:47:02.042Z,13.40
2018-12-03T15:49:30.261Z,13.40
2018-12-03T15:51:58.514Z,13.40
2018-12-03T15:54:26.781Z,13.40
2018-12-03T15:56:55.029Z,13.30
2018-12-03T15:59:23.304Z,13.30
2018-12-03T16:01:51.495Z,13.30
2018-12-03T16:04:19.777Z,13.20
2018-12-03T16:06:48.098Z,13.20
2018-12-03T16:09:16.430Z,13.10
2018-12-03T16:11:44.689Z,13.10
2018-12-03T16:14:12.933Z,13.10
2018-12-03T16:16:41.201Z,13.10
2018-12-03T16:19:45.555Z,13.10
2018-12-03T16:22:13.017Z,13.10
2018-12-03T16:24:40.487Z,13.10
2018-12-03T16:27:07.941Z,13.10
2018-12-03T16:29:35.397Z,13.10
2018-12-03T16:32:02.926Z,13.00
2018-12-03T16:34:30.461Z,13.00
2018-12-03T16:36:58.045Z,13.00
2018-12-03T16:39:25.510Z,13.10
2018-12-03T16:41:53.090Z,13.00
2018-12-03T16:44:20.541Z,13.10
2018-12-03T16:46:48.388Z,13.10
2018-12-03T16:49:15.875Z,13.00
2018-12-03T16:51:43.411Z,13.10
2018-12-03T16:54:10.840Z,13.10
2018-12-03T16:56:38.301Z,13.10
2018-12-03T16:59:05.751Z,13.10
2018-12-03T17:01:33.237Z,13.20
2018-12-03T17:04:00.705Z,13.20
2018-12-03T17:06:28.171Z,13.20
2018-12-03T17:08:55.654Z,13.20
2018-12-03T17:11:23.097Z,13.20
2018-12-03T17:13:50.561Z,13.20
2018-12-03T17:16:18.159Z,13.20
2018-12-03T17:18:45.732Z,13.20
2018-12-03T17:21:13.167Z,13.20
2018-12-03T17:23:40.617Z,13.30
2018-12-03T17:26:08.089Z,13.30
2018-12-03T17:28:35.594Z,13.30
2018-12-03T17:31:03.097Z,13.30
2018-12-03T17:33:30.563Z,13.20
2018-12-03T17:35:58.023Z,13.10
2018-12-03T17:38:25.470Z,12.90
2018-12-03T17:40:52.980Z,12.90
2018-12-03T17:43:20.527Z,12.90
2018-12-03T17:45:47.988Z,12.80
2018-12-03T17:48:15.491Z,12.80
2018-12-03T17:50:42.926Z,12.60
2018-12-03T17:53:10.381Z,12.50
2018-12-03T17:55:37.850Z,12.50
2018-12-03T17:58:05.332Z,12.50
2018-12-03T18:00:32.785Z,12.50
2018-12-03T18:03:00.242Z,12.50
2018-12-03T18:05:27.738Z,12.50
2018-12-03T18:07:55.165Z,12.50
2018-12-03T18:10:22.609Z,12.50
2018-12-03T18:12:50.073Z,12.50
2018-12-03T18:15:17.531Z,12.50
2018-12-03T18:17:44.985Z,12.50
2018-12-03T18:20:12.437Z,12.40
2018-12-03T18:22:39.909Z,12.50
2018-12-03T18:25:07.406Z,12.40
2018-12-03T18:27:34.914Z,12.50
2018-12-03T18:30:02.737Z,12.40
2018-12-03T18:32:30.245Z,12.40
2018-12-03T18:34:57.704Z,12.40
2018-12-03T18:37:25.252Z,12.40
2018-12-03T18:39:52.716Z,12.40
2018-12-03T18:42:20.168Z,12.40
2018-12-03T18:44:47.628Z,12.40
2018-12-03T18:47:15.065Z,12.50
2018-12-03T18:49:42.557Z,12.60
2018-12-03T18:52:10.051Z,12.60
2018-12-03T18:54:37.529Z,12.60
2018-12-03T18:57:04.989Z,12.70
2018-12-03T18:59:32.431Z,12.70
2018-12-03T19:01:59.899Z,12.80
2018-12-03T19:04:27.349Z,12.70
2018-12-03T19:06:54.805Z,12.80
2018-12-03T19:09:23.056Z,12.80
2018-12-03T19:11:50.661Z,12.80
2018-12-03T19:14:18.125Z,12.80
2018-12-03T19:16:45.583Z,12.90
2018-12-03T19:19:13.251Z,12.90
2018-12-03T19:21:40.676Z,12.90
2018-12-03T19:24:08.166Z,12.90
2018-12-03T19:26:35.626Z,12.90
2018-12-03T19:29:03.255Z,12.80
2018-12-03T19:31:31.389Z,12.80
2018-12-03T19:33:58.978Z,12.70
2018-12-03T19:36:26.458Z,12.70
2018-12-03T19:38:53.981Z,12.70
2018-12-03T19:41:21.488Z,12.70
2018-12-03T19:43:48.969Z,12.70
2018-12-03T19:46:16.420Z,12.80
2018-12-03T19:48:44.133Z,12.80
2018-12-03T19:51:11.629Z,12.80
2018-12-03T19:53:39.084Z,12.80
2018-12-03T19:56:06.543Z,12.90
2018-12-03T19:58:34.021Z,12.90
2018-12-03T20:01:01.455Z,12.80
2018-12-03T20:03:28.926Z,12.70
2018-12-03T20:05:56.478Z,12.60
2018-12-03T20:08:23.925Z,12.40
2018-12-03T20:10:51.388Z,12.20
2018-12-03T20:13:20.284Z,12.10
2018-12-03T20:15:57.843Z,11.90
2018-12-03T20:18:25.353Z,11.80
2018-12-03T20:20:52.936Z,11.70
2018-12-03T20:23:20.392Z,11.70
2018-12-03T20:25:47.919Z,11.60
2018-12-03T20:28:15.426Z,11.60
2018-12-03T20:30:43.757Z,11.60
2018-12-03T20:33:11.257Z,11.50
2018-12-03T20:35:39.225Z,11.50
2018-12-03T20:38:06.730Z,11.50
2018-12-03T20:40:34.492Z,11.60
2018-12-03T20:43:02.037Z,11.60
2018-12-03T20:45:34.870Z,11.60
2018-12-03T20:48:03.517Z,11.60
2018-12-03T20:50:31.095Z,11.60
2018-12-03T20:52:58.525Z,11.60
2018-12-03T20:55:26.006Z,11.60
2018-12-03T20:57:53.456Z,11.60
2018-12-03T21:00:20.900Z,11.70
2018-12-03T21:02:48.463Z,11.60
2018-12-03T21:05:16.028Z,11.70
2018-12-03T21:07:43.502Z,11.70
2018-12-03T21:10:10.938Z,11.80
2018-12-03T21:12:39.346Z,11.80
2018-12-03T21:15:07.339Z,11.80
2018-12-03T21:17:34.845Z,11.80
2018-12-03T21:20:04.390Z,11.90
2018-12-03T21:22:31.856Z,11.90
2018-12-03T21:24:59.368Z,11.90
2018-12-03T21:27:26.837Z,11.90
2018-12-03T21:29:54.288Z,12.00
2018-12-03T21:32:21.801Z,12.00
2018-12-03T21:34:49.262Z,12.00
2018-12-03T21:37:16.746Z,11.90
2018-12-03T21:39:48.015Z,11.80
2018-12-03T21:42:14.921Z,11.80
2018-12-03T21:44:42.388Z,11.70
2018-12-03T21:47:09.867Z,11.60
2018-12-03T21:49:37.314Z,11.60
2018-12-03T21:52:04.838Z,11.60
2018-12-03T21:54:32.300Z,11.50
2018-12-03T21:56:59.750Z,11.50
2018-12-03T21:59:27.200Z,11.50
2018-12-03T22:01:54.704Z,11.60
2018-12-03T22:04:22.181Z,11.50
2018-12-03T22:06:49.662Z,11.60
2018-12-03T22:09:17.250Z,11.60
2018-12-03T22:11:44.749Z,11.60
2018-12-03T22:14:12.194Z,11.60
2018-12-03T22:16:39.651Z,11.60
2018-12-03T22:19:07.116Z,11.60
2018-12-03T22:21:34.565Z,11.60
2018-12-03T22:24:02.011Z,11.60
2018-12-03T22:26:29.478Z,11.60
2018-12-03T22:28:56.959Z,11.60
2018-12-03T22:31:24.525Z,11.60
2018-12-03T22:33:51.956Z,11.60
2018-12-03T22:36:19.468Z,11.60
2018-12-03T22:38:46.949Z,11.60
2018-12-03T22:41:14.427Z,11.50
2018-12-03T22:43:41.885Z,11.50
2018-12-03T22:46:09.332Z,11.40
2018-12-03T22:48:36.784Z,11.30
2018-12-03T22:51:04.253Z,11.20
2018-12-03T22:53:31.722Z,11.20
2018-12-03T22:55:59.156Z,11.10
2018-12-03T22:58:26.621Z,11.00
2018-12-03T23:00:58.844Z,11.00
2018-12-03T23:03:26.408Z,10.90
2018-12-03T23:05:53.857Z,10.90
2018-12-03T23:08:21.309Z,10.80
2018-12-03T23:10:48.793Z,10.80
2018-12-03T23:13:16.265Z,10.90
2018-12-03T23:15:43.716Z,10.80
2018-12-03T23:18:11.182Z,10.80
2018-12-03T23:20:38.623Z,10.80
2018-12-03T23:23:06.113Z,10.80
2018-12-03T23:25:33.988Z,10.70
2018-12-03T23:28:01.430Z,10.70
2018-12-03T23:30:28.872Z,10.70
2018-12-03T23:32:56.336Z,10.70
2018-12-03T23:35:23.779Z,10.70
2018-12-03T23:37:51.319Z,10.60
2018-12-03T23:40:18.760Z,10.60
2018-12-03T23:42:46.253Z,10.60
2018-12-03T23:45:13.723Z,10.60
2018-12-03T23:47:41.166Z,10.50
2018-12-03T23:50:08.637Z,10.50
2018-12-03T23:52:36.093Z,10.50
2018-12-03T23:55:03.600Z,10.50
2018-12-03T23:57:31.067Z,10.40
2018-12-03T23:59:58.508Z,10.50
